sensor_id;sensor_type;location;lat;lon;timestamp;pressure;altitude;pressure_sealevel;temperature;humidity
63708;BME280;67643;-34.198;22.084;2023-06-26T00:00:55;100913.31;;;15.89;50.41
63708;BME280;67643;-34.198;22.084;2023-06-26T00:03:24;100904.33;;;16.22;50.33
63708;BME280;67643;-34.198;22.084;2023-06-26T00:05:52;100908.41;;;15.82;50.51
63708;BME280;67643;-34.198;22.084;2023-06-26T00:08:21;100920.63;;;16.13;50.47
63708;BME280;67643;-34.198;22.084;2023-06-26T00:10:50;100915.46;;;16.00;50.75
63708;BME280;67643;-34.198;22.084;2023-06-26T00:13:18;100911.31;;;15.87;50.51
63708;BME280;67643;-34.198;22.084;2023-06-26T00:15:47;100919.12;;;16.08;50.57
63708;BME280;67643;-34.198;22.084;2023-06-26T00:18:15;100924.28;;;16.15;50.41
63708;BME280;67643;-34.198;22.084;2023-06-26T00:20:44;100919.69;;;16.13;50.55
63708;BME280;67643;-34.198;22.084;2023-06-26T00:23:13;100917.61;;;15.82;50.57
63708;BME280;67643;-34.198;22.084;2023-06-26T00:25:41;100917.04;;;16.13;50.41
63708;BME280;67643;-34.198;22.084;2023-06-26T00:28:11;100909.31;;;15.79;50.56
63708;BME280;67643;-34.198;22.084;2023-06-26T00:30:39;100907.81;;;16.17;50.45
63708;BME280;67643;-34.198;22.084;2023-06-26T00:33:08;100918.71;;;15.97;50.32
63708;BME280;67643;-34.198;22.084;2023-06-26T00:35:37;100931.66;;;15.81;50.48
63708;BME280;67643;-34.198;22.084;2023-06-26T00:38:06;100934.19;;;15.47;51.13
63708;BME280;67643;-34.198;22.084;2023-06-26T00:40:34;100927.29;;;16.01;50.70
63708;BME280;67643;-34.198;22.084;2023-06-26T00:43:04;100916.17;;;16.17;50.34
63708;BME280;67643;-34.198;22.084;2023-06-26T00:45:32;100906.93;;;15.94;50.38
63708;BME280;67643;-34.198;22.084;2023-06-26T00:48:01;100901.12;;;15.98;50.23
63708;BME280;67643;-34.198;22.084;2023-06-26T00:50:29;100898.82;;;16.21;50.29
63708;BME280;67643;-34.198;22.084;2023-06-26T00:52:58;100903.18;;;15.86;50.44
63708;BME280;67643;-34.198;22.084;2023-06-26T00:55:26;100905.21;;;16.12;50.47
63708;BME280;67643;-34.198;22.084;2023-06-26T00:57:56;100904.27;;;15.82;50.60
63708;BME280;67643;-34.198;22.084;2023-06-26T01:00:24;100898.97;;;15.60;50.53
63708;BME280;67643;-34.198;22.084;2023-06-26T01:02:55;100900.01;;;16.46;49.87
63708;BME280;67643;-34.198;22.084;2023-06-26T01:05:24;100897.25;;;16.24;50.20
63708;BME280;67643;-34.198;22.084;2023-06-26T01:07:52;100889.82;;;15.92;50.35
63708;BME280;67643;-34.198;22.084;2023-06-26T01:10:21;100893.97;;;16.11;50.44
63708;BME280;67643;-34.198;22.084;2023-06-26T01:12:51;100900.83;;;16.01;50.13
63708;BME280;67643;-34.198;22.084;2023-06-26T01:15:19;100907.14;;;16.26;50.21
63708;BME280;67643;-34.198;22.084;2023-06-26T01:17:48;100908.33;;;15.97;50.27
63708;BME280;67643;-34.198;22.084;2023-06-26T01:20:18;100903.44;;;15.93;50.24
63708;BME280;67643;-34.198;22.084;2023-06-26T01:22:56;100899.22;;;15.86;50.40
63708;BME280;67643;-34.198;22.084;2023-06-26T01:25:35;100898.32;;;16.32;50.08
63708;BME280;67643;-34.198;22.084;2023-06-26T01:28:05;100895.89;;;16.04;50.05
63708;BME280;67643;-34.198;22.084;2023-06-26T01:30:39;100893.44;;;16.12;50.45
63708;BME280;67643;-34.198;22.084;2023-06-26T01:33:08;100893.21;;;15.98;50.19
63708;BME280;67643;-34.198;22.084;2023-06-26T01:35:37;100893.12;;;16.28;50.20
63708;BME280;67643;-34.198;22.084;2023-06-26T01:38:15;100891.22;;;16.03;50.19
63708;BME280;67643;-34.198;22.084;2023-06-26T01:40:43;100890.40;;;15.96;50.27
63708;BME280;67643;-34.198;22.084;2023-06-26T01:43:18;100885.06;;;16.20;50.27
63708;BME280;67643;-34.198;22.084;2023-06-26T01:45:53;100882.52;;;15.99;50.17
63708;BME280;67643;-34.198;22.084;2023-06-26T01:48:25;100890.17;;;16.24;50.23
63708;BME280;67643;-34.198;22.084;2023-06-26T01:50:58;100888.76;;;16.06;50.10
63708;BME280;67643;-34.198;22.084;2023-06-26T01:53:35;100893.71;;;15.92;50.36
63708;BME280;67643;-34.198;22.084;2023-06-26T01:56:08;100889.67;;;16.24;50.24
63708;BME280;67643;-34.198;22.084;2023-06-26T01:58:43;100888.86;;;15.88;50.45
63708;BME280;67643;-34.198;22.084;2023-06-26T02:02:10;100886.43;;;16.35;50.04
63708;BME280;67643;-34.198;22.084;2023-06-26T02:04:39;100885.89;;;16.03;50.21
63708;BME280;67643;-34.198;22.084;2023-06-26T02:07:07;100884.98;;;16.28;50.18
63708;BME280;67643;-34.198;22.084;2023-06-26T02:09:36;100884.01;;;16.33;50.30
63708;BME280;67643;-34.198;22.084;2023-06-26T02:12:05;100884.17;;;16.20;49.89
63708;BME280;67643;-34.198;22.084;2023-06-26T02:14:34;100878.35;;;16.03;50.24
63708;BME280;67643;-34.198;22.084;2023-06-26T02:17:03;100873.97;;;16.31;50.17
63708;BME280;67643;-34.198;22.084;2023-06-26T02:19:32;100869.01;;;16.19;50.46
63708;BME280;67643;-34.198;22.084;2023-06-26T02:22:00;100866.79;;;16.01;50.21
63708;BME280;67643;-34.198;22.084;2023-06-26T02:24:29;100865.71;;;16.39;50.11
63708;BME280;67643;-34.198;22.084;2023-06-26T02:26:58;100866.32;;;16.22;50.35
63708;BME280;67643;-34.198;22.084;2023-06-26T02:29:26;100867.63;;;16.18;50.50
63708;BME280;67643;-34.198;22.084;2023-06-26T02:31:55;100871.29;;;16.31;50.28
63708;BME280;67643;-34.198;22.084;2023-06-26T02:34:24;100869.72;;;15.97;50.35
63708;BME280;67643;-34.198;22.084;2023-06-26T02:36:52;100872.16;;;16.31;50.26
63708;BME280;67643;-34.198;22.084;2023-06-26T02:39:21;100873.37;;;16.44;50.04
63708;BME280;67643;-34.198;22.084;2023-06-26T02:41:49;100876.32;;;16.27;50.49
63708;BME280;67643;-34.198;22.084;2023-06-26T02:44:18;100878.63;;;16.13;50.60
63708;BME280;67643;-34.198;22.084;2023-06-26T02:46:46;100879.83;;;16.24;50.45
63708;BME280;67643;-34.198;22.084;2023-06-26T02:49:14;100880.12;;;16.07;50.23
63708;BME280;67643;-34.198;22.084;2023-06-26T02:51:43;100878.73;;;16.20;50.46
63708;BME280;67643;-34.198;22.084;2023-06-26T02:54:13;100879.36;;;15.91;50.52
63708;BME280;67643;-34.198;22.084;2023-06-26T02:56:42;100874.44;;;15.91;50.44
63708;BME280;67643;-34.198;22.084;2023-06-26T02:59:10;100873.00;;;16.04;50.67
63708;BME280;67643;-34.198;22.084;2023-06-26T03:01:38;100876.81;;;16.09;50.63
63708;BME280;67643;-34.198;22.084;2023-06-26T03:04:07;100879.33;;;15.96;50.32
63708;BME280;67643;-34.198;22.084;2023-06-26T03:06:35;100886.31;;;16.23;50.36
63708;BME280;67643;-34.198;22.084;2023-06-26T03:09:04;100890.27;;;15.96;50.29
63708;BME280;67643;-34.198;22.084;2023-06-26T03:11:32;100890.76;;;16.19;50.42
63708;BME280;67643;-34.198;22.084;2023-06-26T03:14:01;100888.79;;;16.34;50.12
63708;BME280;67643;-34.198;22.084;2023-06-26T03:16:29;100887.15;;;15.92;50.37
63708;BME280;67643;-34.198;22.084;2023-06-26T03:18:58;100885.64;;;16.34;50.11
63708;BME280;67643;-34.198;22.084;2023-06-26T03:21:26;100887.82;;;16.24;50.36
63708;BME280;67643;-34.198;22.084;2023-06-26T03:23:55;100886.69;;;15.98;50.31
63708;BME280;67643;-34.198;22.084;2023-06-26T03:26:25;100888.53;;;15.96;50.38
63708;BME280;67643;-34.198;22.084;2023-06-26T03:28:53;100887.84;;;15.96;50.29
63708;BME280;67643;-34.198;22.084;2023-06-26T03:31:21;100889.52;;;16.01;50.23
63708;BME280;67643;-34.198;22.084;2023-06-26T03:33:51;100889.11;;;16.09;50.07
63708;BME280;67643;-34.198;22.084;2023-06-26T03:36:19;100880.41;;;16.26;50.25
63708;BME280;67643;-34.198;22.084;2023-06-26T03:38:48;100881.12;;;16.17;49.98
63708;BME280;67643;-34.198;22.084;2023-06-26T03:41:17;100876.98;;;16.41;50.05
63708;BME280;67643;-34.198;22.084;2023-06-26T03:43:46;100873.32;;;15.99;50.35
63708;BME280;67643;-34.198;22.084;2023-06-26T03:46:15;100872.49;;;16.32;50.22
63708;BME280;67643;-34.198;22.084;2023-06-26T03:48:43;100874.22;;;16.39;50.52
63708;BME280;67643;-34.198;22.084;2023-06-26T03:51:12;100876.50;;;16.87;50.49
63708;BME280;67643;-34.198;22.084;2023-06-26T03:53:40;100875.57;;;17.05;50.55
63708;BME280;67643;-34.198;22.084;2023-06-26T03:56:10;100874.08;;;17.12;50.79
63708;BME280;67643;-34.198;22.084;2023-06-26T03:58:38;100876.87;;;17.06;50.84
63708;BME280;67643;-34.198;22.084;2023-06-26T04:01:06;100877.24;;;17.03;51.15
63708;BME280;67643;-34.198;22.084;2023-06-26T04:03:35;100874.13;;;17.17;51.18
63708;BME280;67643;-34.198;22.084;2023-06-26T04:06:04;100874.33;;;17.32;51.23
63708;BME280;67643;-34.198;22.084;2023-06-26T04:08:32;100872.55;;;17.42;51.24
63708;BME280;67643;-34.198;22.084;2023-06-26T04:11:02;100873.75;;;17.48;51.35
63708;BME280;67643;-34.198;22.084;2023-06-26T04:13:31;100873.35;;;17.51;51.54
63708;BME280;67643;-34.198;22.084;2023-06-26T04:15:59;100878.28;;;17.54;51.64
63708;BME280;67643;-34.198;22.084;2023-06-26T04:18:27;100875.50;;;17.41;51.57
63708;BME280;67643;-34.198;22.084;2023-06-26T04:21:12;100881.60;;;17.50;51.57
63708;BME280;67643;-34.198;22.084;2023-06-26T04:23:41;100880.99;;;17.82;51.67
63708;BME280;67643;-34.198;22.084;2023-06-26T04:26:09;100878.88;;;17.80;51.98
63708;BME280;67643;-34.198;22.084;2023-06-26T04:28:44;100881.80;;;17.34;52.05
63708;BME280;67643;-34.198;22.084;2023-06-26T04:31:12;100883.61;;;17.59;52.23
63708;BME280;67643;-34.198;22.084;2023-06-26T04:33:41;100889.04;;;17.64;52.32
63708;BME280;67643;-34.198;22.084;2023-06-26T04:36:10;100894.27;;;17.52;52.17
63708;BME280;67643;-34.198;22.084;2023-06-26T04:38:39;100898.25;;;17.86;52.03
63708;BME280;67643;-34.198;22.084;2023-06-26T04:41:07;100903.80;;;17.91;51.70
63708;BME280;67643;-34.198;22.084;2023-06-26T04:43:35;100906.89;;;17.52;51.61
63708;BME280;67643;-34.198;22.084;2023-06-26T04:46:04;100908.47;;;17.66;51.59
63708;BME280;67643;-34.198;22.084;2023-06-26T04:48:33;100913.34;;;17.22;51.70
63708;BME280;67643;-34.198;22.084;2023-06-26T04:51:02;100914.79;;;17.14;51.78
63708;BME280;67643;-34.198;22.084;2023-06-26T04:53:30;100914.41;;;17.38;51.43
63708;BME280;67643;-34.198;22.084;2023-06-26T04:55:59;100913.04;;;17.36;51.21
63708;BME280;67643;-34.198;22.084;2023-06-26T04:58:27;100915.27;;;17.30;51.60
63708;BME280;67643;-34.198;22.084;2023-06-26T05:00:56;100917.55;;;17.09;51.49
63708;BME280;67643;-34.198;22.084;2023-06-26T05:03:24;100916.36;;;17.08;51.76
63708;BME280;67643;-34.198;22.084;2023-06-26T05:05:53;100917.04;;;17.23;51.42
63708;BME280;67643;-34.198;22.084;2023-06-26T05:08:23;100919.81;;;17.43;50.96
63708;BME280;67643;-34.198;22.084;2023-06-26T05:10:51;100916.60;;;17.44;50.84
63708;BME280;67643;-34.198;22.084;2023-06-26T05:13:20;100915.88;;;17.38;50.78
63708;BME280;67643;-34.198;22.084;2023-06-26T05:15:48;100916.51;;;17.12;50.67
63708;BME280;67643;-34.198;22.084;2023-06-26T05:18:16;100919.32;;;17.19;50.46
63708;BME280;67643;-34.198;22.084;2023-06-26T05:20:46;100925.31;;;17.18;50.78
63708;BME280;67643;-34.198;22.084;2023-06-26T05:23:14;100926.14;;;17.14;50.74
63708;BME280;67643;-34.198;22.084;2023-06-26T05:25:44;100926.74;;;16.94;50.60
63708;BME280;67643;-34.198;22.084;2023-06-26T05:28:14;100927.10;;;17.35;50.66
63708;BME280;67643;-34.198;22.084;2023-06-26T05:30:43;100925.36;;;17.05;50.64
63708;BME280;67643;-34.198;22.084;2023-06-26T05:33:13;100931.51;;;17.00;50.72
63708;BME280;67643;-34.198;22.084;2023-06-26T05:35:44;100938.18;;;17.18;50.66
63708;BME280;67643;-34.198;22.084;2023-06-26T05:38:14;100939.86;;;16.98;50.58
63708;BME280;67643;-34.198;22.084;2023-06-26T05:40:46;100934.38;;;17.00;50.43
63708;BME280;67643;-34.198;22.084;2023-06-26T05:43:14;100931.16;;;16.95;50.51
63708;BME280;67643;-34.198;22.084;2023-06-26T05:45:43;100933.12;;;17.03;50.26
63708;BME280;67643;-34.198;22.084;2023-06-26T05:48:12;100932.88;;;17.05;50.20
63708;BME280;67643;-34.198;22.084;2023-06-26T05:50:41;100933.34;;;16.96;50.30
63708;BME280;67643;-34.198;22.084;2023-06-26T05:53:10;100933.19;;;16.90;50.37
63708;BME280;67643;-34.198;22.084;2023-06-26T05:55:39;100934.47;;;16.78;50.53
63708;BME280;67643;-34.198;22.084;2023-06-26T05:58:08;100935.85;;;16.61;50.47
63708;BME280;67643;-34.198;22.084;2023-06-26T06:00:38;100940.23;;;16.89;50.31
63708;BME280;67643;-34.198;22.084;2023-06-26T06:03:06;100940.43;;;16.91;50.27
63708;BME280;67643;-34.198;22.084;2023-06-26T06:05:34;100943.45;;;16.89;50.35
63708;BME280;67643;-34.198;22.084;2023-06-26T06:08:03;100944.46;;;16.87;50.32
63708;BME280;67643;-34.198;22.084;2023-06-26T06:10:32;100947.58;;;17.10;50.23
63708;BME280;67643;-34.198;22.084;2023-06-26T06:13:02;100945.19;;;16.73;50.47
63708;BME280;67643;-34.198;22.084;2023-06-26T06:15:30;100945.13;;;16.80;50.42
63708;BME280;67643;-34.198;22.084;2023-06-26T06:17:59;100940.66;;;16.50;50.53
63708;BME280;67643;-34.198;22.084;2023-06-26T06:20:27;100939.38;;;16.73;50.52
63708;BME280;67643;-34.198;22.084;2023-06-26T06:22:56;100938.39;;;17.07;50.33
63708;BME280;67643;-34.198;22.084;2023-06-26T06:25:24;100938.41;;;16.70;50.54
63708;BME280;67643;-34.198;22.084;2023-06-26T06:27:53;100937.52;;;16.69;50.57
63708;BME280;67643;-34.198;22.084;2023-06-26T06:30:21;100932.65;;;16.73;50.47
63708;BME280;67643;-34.198;22.084;2023-06-26T06:32:50;100939.53;;;16.75;50.39
63708;BME280;67643;-34.198;22.084;2023-06-26T06:35:18;100945.28;;;16.89;50.21
63708;BME280;67643;-34.198;22.084;2023-06-26T06:37:47;100942.45;;;17.04;50.44
63708;BME280;67643;-34.198;22.084;2023-06-26T06:40:16;100941.36;;;16.90;50.14
63708;BME280;67643;-34.198;22.084;2023-06-26T06:42:45;100936.13;;;17.03;50.40
63708;BME280;67643;-34.198;22.084;2023-06-26T06:45:13;100939.19;;;16.79;50.46
63708;BME280;67643;-34.198;22.084;2023-06-26T06:47:41;100939.03;;;16.77;50.37
63708;BME280;67643;-34.198;22.084;2023-06-26T06:50:10;100942.18;;;16.71;50.52
63708;BME280;67643;-34.198;22.084;2023-06-26T06:52:39;100947.21;;;17.08;50.31
63708;BME280;67643;-34.198;22.084;2023-06-26T06:55:09;100952.16;;;16.85;50.24
63708;BME280;67643;-34.198;22.084;2023-06-26T06:57:38;100950.12;;;16.73;50.49
63708;BME280;67643;-34.198;22.084;2023-06-26T07:00:09;100948.11;;;16.77;50.52
63708;BME280;67643;-34.198;22.084;2023-06-26T07:02:39;100945.23;;;16.89;50.29
63708;BME280;67643;-34.198;22.084;2023-06-26T07:05:07;100942.50;;;16.88;50.30
63708;BME280;67643;-34.198;22.084;2023-06-26T07:07:37;100942.74;;;16.76;50.52
63708;BME280;67643;-34.198;22.084;2023-06-26T07:10:07;100946.74;;;16.74;50.63
63708;BME280;67643;-34.198;22.084;2023-06-26T07:12:37;100944.37;;;16.70;50.62
63708;BME280;67643;-34.198;22.084;2023-06-26T07:15:07;100944.57;;;16.79;50.46
63708;BME280;67643;-34.198;22.084;2023-06-26T07:17:36;100941.28;;;17.00;50.52
63708;BME280;67643;-34.198;22.084;2023-06-26T07:20:05;100935.61;;;16.75;50.57
63708;BME280;67643;-34.198;22.084;2023-06-26T07:22:33;100938.85;;;17.09;50.33
63708;BME280;67643;-34.198;22.084;2023-06-26T07:25:02;100942.16;;;16.84;50.48
63708;BME280;67643;-34.198;22.084;2023-06-26T07:27:30;100939.97;;;16.94;50.33
63708;BME280;67643;-34.198;22.084;2023-06-26T07:29:59;100941.83;;;17.02;50.69
63708;BME280;67643;-34.198;22.084;2023-06-26T07:32:27;100943.28;;;16.91;50.65
63708;BME280;67643;-34.198;22.084;2023-06-26T07:34:56;100949.74;;;16.92;50.75
63708;BME280;67643;-34.198;22.084;2023-06-26T07:37:25;100948.22;;;17.16;50.73
63708;BME280;67643;-34.198;22.084;2023-06-26T07:39:53;100939.60;;;16.97;50.76
63708;BME280;67643;-34.198;22.084;2023-06-26T07:42:22;100938.66;;;16.96;51.09
63708;BME280;67643;-34.198;22.084;2023-06-26T07:44:50;100941.62;;;16.90;51.40
63708;BME280;67643;-34.198;22.084;2023-06-26T07:47:19;100946.14;;;16.94;51.46
63708;BME280;67643;-34.198;22.084;2023-06-26T07:49:48;100950.34;;;16.95;51.53
63708;BME280;67643;-34.198;22.084;2023-06-26T07:52:17;100961.00;;;17.09;51.29
63708;BME280;67643;-34.198;22.084;2023-06-26T07:54:45;100962.65;;;17.08;51.37
63708;BME280;67643;-34.198;22.084;2023-06-26T07:57:14;100960.82;;;17.04;51.43
63708;BME280;67643;-34.198;22.084;2023-06-26T07:59:43;100955.38;;;16.95;51.58
63708;BME280;67643;-34.198;22.084;2023-06-26T08:02:11;100953.30;;;17.05;51.38
63708;BME280;67643;-34.198;22.084;2023-06-26T08:04:40;100948.38;;;17.23;51.43
63708;BME280;67643;-34.198;22.084;2023-06-26T08:07:08;100943.49;;;16.96;51.49
63708;BME280;67643;-34.198;22.084;2023-06-26T08:09:37;100944.96;;;17.04;51.25
63708;BME280;67643;-34.198;22.084;2023-06-26T08:12:06;100949.82;;;16.99;51.41
63708;BME280;67643;-34.198;22.084;2023-06-26T08:14:35;100960.57;;;16.99;51.42
63708;BME280;67643;-34.198;22.084;2023-06-26T08:17:03;100964.45;;;17.10;51.20
63708;BME280;67643;-34.198;22.084;2023-06-26T08:19:31;100966.31;;;17.15;51.10
63708;BME280;67643;-34.198;22.084;2023-06-26T08:22:00;100970.54;;;17.08;51.13
63708;BME280;67643;-34.198;22.084;2023-06-26T08:24:29;100976.44;;;17.12;51.13
63708;BME280;67643;-34.198;22.084;2023-06-26T08:26:57;100974.16;;;17.14;51.18
63708;BME280;67643;-34.198;22.084;2023-06-26T08:29:25;100964.02;;;17.12;51.29
63708;BME280;67643;-34.198;22.084;2023-06-26T08:31:54;100955.13;;;17.14;51.19
63708;BME280;67643;-34.198;22.084;2023-06-26T08:34:22;100956.72;;;17.10;51.32
63708;BME280;67643;-34.198;22.084;2023-06-26T08:36:50;100946.31;;;17.16;51.24
63708;BME280;67643;-34.198;22.084;2023-06-26T08:39:19;100936.68;;;16.94;51.19
63708;BME280;67643;-34.198;22.084;2023-06-26T08:41:47;100932.46;;;16.89;51.29
63708;BME280;67643;-34.198;22.084;2023-06-26T08:44:16;100946.37;;;17.11;51.44
63708;BME280;67643;-34.198;22.084;2023-06-26T08:46:45;100958.28;;;17.13;51.47
63708;BME280;67643;-34.198;22.084;2023-06-26T08:49:18;100963.82;;;17.08;51.67
63708;BME280;67643;-34.198;22.084;2023-06-26T08:51:55;100964.96;;;17.13;51.70
63708;BME280;67643;-34.198;22.084;2023-06-26T08:54:30;100966.27;;;17.03;52.11
63708;BME280;67643;-34.198;22.084;2023-06-26T08:57:03;100969.63;;;17.03;52.28
63708;BME280;67643;-34.198;22.084;2023-06-26T08:59:34;100957.50;;;17.23;52.35
63708;BME280;67643;-34.198;22.084;2023-06-26T09:02:03;100943.89;;;17.03;52.33
63708;BME280;67643;-34.198;22.084;2023-06-26T09:04:31;100929.00;;;17.00;52.35
63708;BME280;67643;-34.198;22.084;2023-06-26T09:07:00;100916.76;;;17.29;52.28
63708;BME280;67643;-34.198;22.084;2023-06-26T09:09:29;100898.51;;;16.90;52.32
63708;BME280;67643;-34.198;22.084;2023-06-26T09:11:57;100891.06;;;17.12;52.54
63708;BME280;67643;-34.198;22.084;2023-06-26T09:14:26;100906.31;;;17.22;52.23
63708;BME280;67643;-34.198;22.084;2023-06-26T09:16:55;100924.00;;;17.21;52.22
63708;BME280;67643;-34.198;22.084;2023-06-26T09:19:24;100920.69;;;17.33;52.10
63708;BME280;67643;-34.198;22.084;2023-06-26T09:21:52;100912.90;;;17.13;52.46
63708;BME280;67643;-34.198;22.084;2023-06-26T09:24:23;100911.27;;;17.27;52.25
63708;BME280;67643;-34.198;22.084;2023-06-26T09:26:53;100914.04;;;17.18;52.48
63708;BME280;67643;-34.198;22.084;2023-06-26T09:29:21;100902.45;;;17.24;52.48
63708;BME280;67643;-34.198;22.084;2023-06-26T09:31:52;100893.87;;;17.14;52.62
63708;BME280;67643;-34.198;22.084;2023-06-26T09:34:20;100877.52;;;17.17;52.61
63708;BME280;67643;-34.198;22.084;2023-06-26T09:36:53;100872.74;;;17.25;52.54
63708;BME280;67643;-34.198;22.084;2023-06-26T09:39:23;100874.81;;;17.21;52.79
63708;BME280;67643;-34.198;22.084;2023-06-26T09:41:51;100882.13;;;17.38;52.52
63708;BME280;67643;-34.198;22.084;2023-06-26T09:44:21;100885.00;;;17.29;52.74
63708;BME280;67643;-34.198;22.084;2023-06-26T09:46:50;100891.04;;;17.29;52.69
63708;BME280;67643;-34.198;22.084;2023-06-26T09:49:18;100886.24;;;17.23;52.91
63708;BME280;67643;-34.198;22.084;2023-06-26T09:51:46;100887.10;;;17.21;53.06
63708;BME280;67643;-34.198;22.084;2023-06-26T09:54:18;100894.45;;;17.15;53.15
63708;BME280;67643;-34.198;22.084;2023-06-26T09:56:49;100893.81;;;17.12;53.22
63708;BME280;67643;-34.198;22.084;2023-06-26T09:59:18;100896.15;;;17.09;53.48
63708;BME280;67643;-34.198;22.084;2023-06-26T10:01:47;100900.51;;;17.15;53.58
63708;BME280;67643;-34.198;22.084;2023-06-26T10:04:16;100899.94;;;17.11;53.75
63708;BME280;67643;-34.198;22.084;2023-06-26T10:06:47;100900.07;;;17.02;54.03
63708;BME280;67643;-34.198;22.084;2023-06-26T10:09:19;100891.03;;;17.05;54.31
63708;BME280;67643;-34.198;22.084;2023-06-26T10:11:53;100883.70;;;17.17;54.19
63708;BME280;67643;-34.198;22.084;2023-06-26T10:14:26;100875.47;;;17.32;54.53
63708;BME280;67643;-34.198;22.084;2023-06-26T10:16:58;100876.75;;;17.18;54.34
63708;BME280;67643;-34.198;22.084;2023-06-26T10:19:28;100871.80;;;17.06;54.24
63708;BME280;67643;-34.198;22.084;2023-06-26T10:22:01;100869.83;;;17.37;54.59
63708;BME280;67643;-34.198;22.084;2023-06-26T10:24:33;100864.22;;;17.15;54.67
63708;BME280;67643;-34.198;22.084;2023-06-26T10:27:07;100862.46;;;17.21;54.52
63708;BME280;67643;-34.198;22.084;2023-06-26T10:29:37;100855.55;;;17.10;54.79
63708;BME280;67643;-34.198;22.084;2023-06-26T10:32:06;100842.99;;;17.16;54.71
63708;BME280;67643;-34.198;22.084;2023-06-26T10:34:36;100829.66;;;17.22;54.51
63708;BME280;67643;-34.198;22.084;2023-06-26T10:37:05;100831.07;;;17.07;54.72
63708;BME280;67643;-34.198;22.084;2023-06-26T10:39:47;100841.92;;;17.31;54.74
63708;BME280;67643;-34.198;22.084;2023-06-26T10:42:15;100853.25;;;17.07;54.75
63708;BME280;67643;-34.198;22.084;2023-06-26T10:44:47;100857.74;;;17.34;54.16
63708;BME280;67643;-34.198;22.084;2023-06-26T10:47:30;100859.40;;;17.15;53.93
63708;BME280;67643;-34.198;22.084;2023-06-26T10:50:17;100855.14;;;17.25;54.08
63708;BME280;67643;-34.198;22.084;2023-06-26T10:52:53;100843.18;;;17.17;54.06
63708;BME280;67643;-34.198;22.084;2023-06-26T10:55:36;100815.90;;;16.93;54.05
63708;BME280;67643;-34.198;22.084;2023-06-26T10:58:05;100791.54;;;17.14;54.03
63708;BME280;67643;-34.198;22.084;2023-06-26T11:01:17;100778.26;;;17.08;54.02
63708;BME280;67643;-34.198;22.084;2023-06-26T11:03:47;100775.40;;;17.41;53.72
63708;BME280;67643;-34.198;22.084;2023-06-26T11:06:19;100793.08;;;17.12;53.72
63708;BME280;67643;-34.198;22.084;2023-06-26T11:08:49;100798.53;;;16.84;53.72
63708;BME280;67643;-34.198;22.084;2023-06-26T11:11:18;100795.00;;;17.05;53.53
63708;BME280;67643;-34.198;22.084;2023-06-26T11:13:47;100790.23;;;16.89;53.76
63708;BME280;67643;-34.198;22.084;2023-06-26T11:16:16;100787.36;;;16.99;53.49
63708;BME280;67643;-34.198;22.084;2023-06-26T11:18:46;100783.41;;;17.03;53.28
63708;BME280;67643;-34.198;22.084;2023-06-26T11:21:14;100780.28;;;16.79;53.22
63708;BME280;67643;-34.198;22.084;2023-06-26T11:23:45;100780.21;;;17.06;53.08
63708;BME280;67643;-34.198;22.084;2023-06-26T11:26:16;100770.17;;;17.08;53.01
63708;BME280;67643;-34.198;22.084;2023-06-26T11:28:50;100743.95;;;17.04;52.97
63708;BME280;67643;-34.198;22.084;2023-06-26T11:31:27;100699.39;;;17.08;52.79
63708;BME280;67643;-34.198;22.084;2023-06-26T11:33:56;100673.70;;;17.19;52.73
63708;BME280;67643;-34.198;22.084;2023-06-26T11:36:26;100672.18;;;17.11;52.80
63708;BME280;67643;-34.198;22.084;2023-06-26T11:38:55;100673.54;;;17.06;52.73
63708;BME280;67643;-34.198;22.084;2023-06-26T11:41:26;100679.04;;;17.35;52.55
63708;BME280;67643;-34.198;22.084;2023-06-26T11:43:55;100694.39;;;17.45;52.28
63708;BME280;67643;-34.198;22.084;2023-06-26T11:46:24;100704.98;;;17.04;52.58
63708;BME280;67643;-34.198;22.084;2023-06-26T11:48:54;100712.19;;;17.11;52.53
63708;BME280;67643;-34.198;22.084;2023-06-26T11:51:26;100703.91;;;17.14;52.38
63708;BME280;67643;-34.198;22.084;2023-06-26T11:53:55;100709.59;;;17.33;52.41
63708;BME280;67643;-34.198;22.084;2023-06-26T11:56:25;100705.85;;;17.36;52.44
63708;BME280;67643;-34.198;22.084;2023-06-26T11:59:02;100703.03;;;17.11;52.34
63708;BME280;67643;-34.198;22.084;2023-06-26T12:01:32;100692.60;;;17.05;52.46
63708;BME280;67643;-34.198;22.084;2023-06-26T12:04:02;100692.38;;;17.06;52.40
63708;BME280;67643;-34.198;22.084;2023-06-26T12:06:33;100699.71;;;17.08;52.27
63708;BME280;67643;-34.198;22.084;2023-06-26T12:09:04;100705.70;;;17.10;52.22
63708;BME280;67643;-34.198;22.084;2023-06-26T12:11:35;100711.77;;;17.01;52.48
63708;BME280;67643;-34.198;22.084;2023-06-26T12:14:06;100714.61;;;17.21;52.78
63708;BME280;67643;-34.198;22.084;2023-06-26T12:16:37;100726.37;;;17.41;52.99
63708;BME280;67643;-34.198;22.084;2023-06-26T12:19:12;100724.32;;;17.28;53.65
63708;BME280;67643;-34.198;22.084;2023-06-26T12:21:49;100728.87;;;17.28;53.20
63708;BME280;67643;-34.198;22.084;2023-06-26T12:24:18;100747.13;;;17.22;53.07
63708;BME280;67643;-34.198;22.084;2023-06-26T12:26:51;100767.19;;;17.42;52.98
63708;BME280;67643;-34.198;22.084;2023-06-26T12:29:21;100782.21;;;17.27;52.82
63708;BME280;67643;-34.198;22.084;2023-06-26T12:31:51;100791.29;;;17.36;52.84
63708;BME280;67643;-34.198;22.084;2023-06-26T12:34:27;100792.40;;;17.07;52.82
63708;BME280;67643;-34.198;22.084;2023-06-26T12:37:01;100796.04;;;17.29;53.36
63708;BME280;67643;-34.198;22.084;2023-06-26T12:39:44;100795.24;;;17.32;53.75
63708;BME280;67643;-34.198;22.084;2023-06-26T12:42:15;100786.94;;;17.53;53.50
63708;BME280;67643;-34.198;22.084;2023-06-26T12:44:43;100779.82;;;17.23;53.30